Syoueimaru — JL6084 — position and weather

sailwx.info

Track history (hours):
 
Tides and Currents Weather Stations Pressure Air Temp Water Temp Dewpoint Dewpoint Depression Visibility Wind Speed Wind Dir Waves Ship Positions

Syoueimaru

Last reported at 2016-Apr-18 17:31 UTC. Time now 2016-May-27 20:09 UTC.
Position N 35°23' E 140°37'.
Warning: this ship's position is 39 days out of date.

Length 79 m; draft 4.1 m.

Type: Other ship. MMSI: 431500094.

Date/timePositionNaut miles runAvg speedWind from/ knotsBaromVisibWave heightAir tempDewpointWater temp
2016-Apr-18 17:31N 35°23' E 140°37'1010.1
2016-Apr-18 16:33N 35°15' E 140°30'2311.3
2016-Apr-18 14:32N 34°60' E 140°09'1111.6
2016-Apr-18 13:33N 34°53' E 139°58'9 9.1
2016-Apr-18 12:33N 34°54' E 139°47'10 9.8
2016-Apr-18 11:33N 35°04' E 139°45'1210.6
2016-Apr-18 10:27N 35°15' E 139°46'910.6
2016-Apr-18 09:33N 35°24' E 139°43'1111.1
2016-Apr-18 08:33N 35°32' E 139°53'1010.0
2016-Apr-18 07:33N 35°40' E 139°59'  
2016-Apr-11 03:17N 35°41' E 139°59'4 5.5
2016-Apr-11 02:33N 35°37' E 139°58'1010.4
2016-Apr-11 01:34N 35°28' E 139°51'10 9.5
2016-Apr-11 00:33N 35°20' E 139°44'9 9.0
2016-Apr-10 23:32N 35°11' E 139°47'19 0.4
2016-Apr-09 01:25N 34°60' E 139°29'1310.3
2016-Apr-09 00:08N 35°07' E 139°42'610.6
2016-Apr-08 23:33N 35°12' E 139°46'1110.6
2016-Apr-08 22:33N 35°22' E 139°42'1010.4
2016-Apr-08 21:34N 35°30' E 139°51'1110.4
2016-Apr-08 20:33N 35°38' E 139°59'3 2.6
2016-Apr-08 19:30N 35°41' E 139°59'0 0.0
2016-Apr-08 18:30N 35°41' E 139°59'0 0.0
2016-Apr-08 17:33N 35°41' E 139°59'  
Track history (hours):
 
Tides and Currents Weather Stations Pressure Air Temp Water Temp Dewpoint Dewpoint Depression Visibility Wind Speed Wind Dir Waves Ship Positions

Syoueimaru

Last reported at 2016-Apr-18 17:31 UTC. Time now 2016-May-27 20:09 UTC.
Position N 35°23' E 140°37'.
Warning: this ship's position is 39 days out of date.

Length 79 m; draft 4.1 m.

Type: Other ship. MMSI: 431500094.

Date/timePositionNaut miles runAvg speedWind from/ knotsBaromVisibWave heightAir tempDewpointWater temp
2016-Apr-18 17:31N 35°23' E 140°37'1010.1
2016-Apr-18 16:33N 35°15' E 140°30'2311.3
2016-Apr-18 14:32N 34°60' E 140°09'1111.6
2016-Apr-18 13:33N 34°53' E 139°58'9 9.1
2016-Apr-18 12:33N 34°54' E 139°47'10 9.8
2016-Apr-18 11:33N 35°04' E 139°45'1210.6
2016-Apr-18 10:27N 35°15' E 139°46'910.6
2016-Apr-18 09:33N 35°24' E 139°43'1111.1
2016-Apr-18 08:33N 35°32' E 139°53'1010.0
2016-Apr-18 07:33N 35°40' E 139°59'  
2016-Apr-11 03:17N 35°41' E 139°59'4 5.5
2016-Apr-11 02:33N 35°37' E 139°58'1010.4
2016-Apr-11 01:34N 35°28' E 139°51'10 9.5
2016-Apr-11 00:33N 35°20' E 139°44'9 9.0
2016-Apr-10 23:32N 35°11' E 139°47'19 0.4
2016-Apr-09 01:25N 34°60' E 139°29'1310.3
2016-Apr-09 00:08N 35°07' E 139°42'610.6
2016-Apr-08 23:33N 35°12' E 139°46'1110.6
2016-Apr-08 22:33N 35°22' E 139°42'1010.4
2016-Apr-08 21:34N 35°30' E 139°51'1110.4
2016-Apr-08 20:33N 35°38' E 139°59'3 2.6
2016-Apr-08 19:30N 35°41' E 139°59'0 0.0
2016-Apr-08 18:30N 35°41' E 139°59'0 0.0
2016-Apr-08 17:33N 35°41' E 139°59'  

Dump ship's entire track history